createdAt,value
2023-08-21T00:00:52.572Z,4.40
2023-08-21T00:03:39.682Z,4.10
2023-08-21T00:06:26.877Z,4.67
2023-08-21T00:09:14.092Z,4.73
2023-08-21T00:12:01.107Z,4.93
2023-08-21T00:14:48.151Z,4.33
2023-08-21T00:17:35.206Z,4.63
2023-08-21T00:20:22.687Z,4.60
2023-08-21T00:23:09.848Z,4.60
2023-08-21T00:25:56.730Z,4.83
2023-08-21T00:28:44.063Z,4.70
2023-08-21T00:31:31.182Z,4.00
2023-08-21T00:34:18.302Z,3.90
2023-08-21T00:37:05.294Z,3.57
2023-08-21T00:39:52.865Z,3.73
2023-08-21T00:42:40.012Z,3.30
2023-08-21T00:45:27.653Z,3.90
2023-08-21T00:48:14.674Z,3.40
2023-08-21T00:51:02.655Z,3.80
2023-08-21T00:53:49.555Z,3.33
2023-08-21T00:56:37.006Z,3.30
2023-08-21T00:59:23.931Z,3.40
2023-08-21T01:02:11.150Z,3.30
2023-08-21T01:04:58.087Z,3.40
2023-08-21T01:07:45.226Z,3.40
2023-08-21T01:10:50.073Z,3.10
2023-08-21T01:13:43.046Z,2.83
2023-08-21T01:16:32.417Z,3.20
2023-08-21T01:19:21.800Z,2.77
2023-08-21T01:22:08.882Z,2.90
2023-08-21T01:24:56.050Z,3.40
2023-08-21T01:27:43.229Z,2.60
2023-08-21T01:30:30.552Z,2.83
2023-08-21T01:33:26.466Z,3.23
2023-08-21T01:36:13.849Z,2.70
2023-08-21T01:39:01.754Z,2.87
2023-08-21T01:41:48.857Z,2.67
2023-08-21T01:44:35.739Z,2.70
2023-08-21T01:47:24.012Z,2.67
2023-08-21T01:50:10.859Z,2.60
2023-08-21T01:52:59.488Z,2.57
2023-08-21T01:55:48.233Z,2.70
2023-08-21T01:58:37.443Z,2.90
2023-08-21T02:01:24.399Z,2.70
2023-08-21T02:04:12.182Z,2.93
2023-08-21T02:06:59.248Z,2.67
2023-08-21T02:09:46.283Z,2.77
2023-08-21T02:12:33.177Z,2.40
2023-08-21T02:15:20.333Z,2.73
2023-08-21T02:18:07.212Z,2.87
2023-08-21T02:20:54.542Z,2.70
2023-08-21T02:23:41.499Z,3.17
2023-08-21T02:26:28.565Z,2.80
2023-08-21T02:29:15.442Z,2.70
2023-08-21T02:32:03.393Z,2.60
2023-08-21T02:34:50.262Z,2.77
2023-08-21T02:37:37.378Z,2.60
2023-08-21T02:40:24.818Z,2.70
2023-08-21T02:43:12.024Z,2.13
2023-08-21T02:45:58.981Z,2.50
2023-08-21T02:48:46.266Z,2.10
2023-08-21T02:51:33.190Z,2.33
2023-08-21T02:54:20.284Z,2.40
2023-08-21T02:57:08.050Z,2.40
2023-08-21T02:59:55.012Z,2.60
2023-08-21T03:02:42.629Z,2.00
2023-08-21T03:05:30.661Z,1.80
2023-08-21T03:08:17.769Z,2.00
2023-08-21T03:11:04.782Z,2.10
2023-08-21T03:13:51.949Z,1.57
2023-08-21T03:16:39.150Z,1.73
2023-08-21T03:19:26.163Z,1.93
2023-08-21T03:22:15.529Z,2.00
2023-08-21T03:25:03.360Z,1.90
2023-08-21T03:27:51.080Z,2.10
2023-08-21T03:30:37.965Z,1.90
2023-08-21T03:33:25.583Z,1.93
2023-08-21T03:36:15.250Z,1.67
2023-08-21T03:39:02.376Z,1.53
2023-08-21T03:41:51.913Z,1.47
2023-08-21T03:44:39.075Z,1.70
2023-08-21T03:47:26.181Z,1.67
2023-08-21T03:50:22.272Z,1.50
2023-08-21T03:53:09.545Z,1.40
2023-08-21T03:55:56.746Z,1.47
2023-08-21T03:58:43.651Z,1.27
2023-08-21T04:01:30.685Z,1.53
2023-08-21T04:04:17.870Z,1.27
2023-08-21T04:07:05.052Z,1.40
2023-08-21T04:09:52.133Z,1.70
2023-08-21T04:12:39.376Z,1.60
2023-08-21T04:15:27.067Z,1.50
2023-08-21T04:18:20.784Z,1.60
2023-08-21T04:21:14.883Z,1.60
2023-08-21T04:24:02.123Z,1.47
2023-08-21T04:26:49.471Z,1.53
2023-08-21T04:29:36.641Z,1.63
2023-08-21T04:32:23.898Z,1.77
2023-08-21T04:35:11.342Z,1.77
2023-08-21T04:38:03.750Z,1.57
2023-08-21T04:40:51.406Z,1.53
2023-08-21T04:43:38.611Z,1.60
2023-08-21T04:46:27.577Z,1.80
2023-08-21T04:49:15.639Z,1.60
2023-08-21T04:52:02.710Z,1.70
2023-08-21T04:54:50.387Z,1.70
2023-08-21T04:57:38.224Z,1.80
2023-08-21T05:00:28.753Z,2.10
2023-08-21T05:03:15.826Z,2.10
2023-08-21T05:06:13.798Z,2.00
2023-08-21T05:09:00.928Z,2.17
2023-08-21T05:11:47.972Z,2.30
2023-08-21T05:14:37.831Z,2.10
2023-08-21T05:17:25.071Z,2.37
2023-08-21T05:20:12.142Z,2.10
2023-08-21T05:22:59.088Z,2.30
2023-08-21T05:25:46.071Z,2.27
2023-08-21T05:28:33.076Z,2.30
2023-08-21T05:31:20.504Z,2.60
2023-08-21T05:34:13.124Z,2.50
2023-08-21T05:37:00.397Z,2.83
2023-08-21T05:39:47.466Z,2.57
2023-08-21T05:42:34.817Z,2.37
2023-08-21T05:45:22.318Z,2.40
2023-08-21T05:48:09.685Z,2.00
2023-08-21T05:50:57.583Z,2.70
2023-08-21T05:53:44.726Z,2.50
2023-08-21T05:56:31.606Z,2.30
2023-08-21T05:59:18.871Z,2.33
2023-08-21T06:02:05.810Z,2.07
2023-08-21T06:04:53.072Z,2.60
2023-08-21T06:07:41.278Z,2.60
2023-08-21T06:10:28.950Z,2.30
2023-08-21T06:13:15.904Z,2.63
2023-08-21T06:16:05.228Z,3.00
2023-08-21T06:18:53.172Z,2.53
2023-08-21T06:21:40.534Z,2.90
2023-08-21T06:24:27.729Z,2.70
2023-08-21T06:27:19.702Z,2.27
2023-08-21T06:30:06.725Z,2.83
2023-08-21T06:32:53.812Z,2.60
2023-08-21T06:35:40.797Z,2.60
2023-08-21T06:38:27.713Z,2.50
2023-08-21T06:41:14.864Z,2.40
2023-08-21T06:44:03.554Z,2.70
2023-08-21T06:46:50.874Z,2.43
2023-08-21T06:49:38.590Z,2.70
2023-08-21T06:52:25.619Z,2.90
2023-08-21T06:55:12.606Z,2.40
2023-08-21T06:57:59.489Z,2.40
2023-08-21T07:00:46.571Z,2.23
2023-08-21T07:03:33.559Z,2.80
2023-08-21T07:06:21.298Z,2.40
2023-08-21T07:09:08.264Z,2.80
2023-08-21T07:11:55.471Z,2.70
2023-08-21T07:14:42.481Z,2.70
2023-08-21T07:17:29.460Z,2.90
2023-08-21T07:20:16.476Z,2.80
2023-08-21T07:23:03.356Z,2.83
2023-08-21T07:25:50.253Z,2.93
2023-08-21T07:28:37.326Z,2.90
2023-08-21T07:31:24.350Z,3.00
2023-08-21T07:34:11.514Z,2.60
2023-08-21T07:36:58.544Z,2.57
2023-08-21T07:39:45.561Z,2.77
2023-08-21T07:42:33.296Z,2.87
2023-08-21T07:45:20.331Z,2.90
2023-08-21T07:48:14.620Z,2.60
2023-08-21T07:51:02.122Z,1.50
2023-08-21T07:53:49.169Z,2.13
2023-08-21T07:56:36.159Z,1.83
2023-08-21T07:59:24.111Z,1.80
2023-08-21T08:02:14.579Z,1.80
2023-08-21T08:05:01.686Z,1.90
2023-08-21T08:07:48.912Z,1.70
2023-08-21T08:10:35.837Z,1.70
2023-08-21T08:13:23.006Z,1.77
2023-08-21T08:16:09.990Z,2.40
2023-08-21T08:18:57.144Z,1.80
2023-08-21T08:21:44.195Z,2.90
2023-08-21T08:24:31.286Z,1.60
2023-08-21T08:27:18.174Z,1.70
2023-08-21T08:30:05.337Z,1.70
2023-08-21T08:32:52.298Z,1.77
2023-08-21T08:35:39.580Z,1.93
2023-08-21T08:38:26.536Z,1.90
2023-08-21T08:41:15.981Z,2.13
2023-08-21T08:44:03.569Z,2.17
2023-08-21T08:46:50.873Z,2.20
2023-08-21T08:49:37.945Z,2.00
2023-08-21T08:52:25.772Z,1.97
2023-08-21T08:55:13.625Z,2.20
2023-08-21T08:58:00.742Z,2.07
2023-08-21T09:00:27.885Z,2.20
2023-08-21T09:02:56.608Z,2.80
2023-08-21T09:05:23.505Z,3.70
2023-08-21T09:08:32.648Z,2.47
2023-08-21T09:11:23.347Z,2.23
2023-08-21T09:14:11.589Z,2.30
2023-08-21T09:16:58.528Z,2.17
2023-08-21T09:19:45.804Z,2.33
2023-08-21T09:22:38.288Z,2.20
2023-08-21T09:25:30.280Z,2.23
2023-08-21T09:28:17.853Z,2.30
2023-08-21T09:31:12.889Z,1.80
2023-08-21T09:33:59.985Z,2.00
2023-08-21T09:36:47.265Z,2.27
2023-08-21T09:39:39.902Z,1.93
2023-08-21T09:42:30.321Z,2.10
2023-08-21T09:45:17.400Z,2.40
2023-08-21T09:48:04.772Z,2.10
2023-08-21T12:04:19.233Z,1.20
2023-08-21T12:06:46.708Z,1.40
2023-08-21T12:09:13.771Z,1.30
2023-08-21T12:11:40.819Z,1.40
2023-08-21T12:14:07.911Z,1.17
2023-08-21T12:16:35.047Z,1.07
2023-08-21T12:19:04.294Z,1.17
2023-08-21T12:21:32.027Z,1.17
2023-08-21T12:23:58.989Z,1.43
2023-08-21T12:26:31.605Z,1.30
2023-08-21T12:29:04.221Z,1.23
2023-08-21T12:31:31.583Z,1.70
2023-08-21T12:33:59.027Z,1.50
2023-08-21T12:36:26.100Z,1.53
2023-08-21T12:38:53.723Z,1.60
2023-08-21T12:41:20.922Z,1.50
2023-08-21T12:43:48.846Z,1.33
2023-08-21T12:46:15.916Z,1.37
2023-08-21T12:48:43.170Z,1.20
2023-08-21T12:51:10.176Z,1.10
2023-08-21T12:53:37.303Z,1.20
2023-08-21T12:56:05.039Z,1.23
2023-08-21T12:58:32.165Z,1.47
2023-08-21T13:00:59.759Z,1.47
2023-08-21T13:03:27.226Z,1.83
2023-08-21T13:05:54.389Z,1.90
2023-08-21T13:08:22.541Z,1.70
2023-08-21T13:10:49.667Z,1.40
2023-08-21T13:13:16.583Z,2.00
2023-08-21T13:15:46.102Z,1.93
2023-08-21T13:18:13.615Z,1.83
2023-08-21T13:20:44.559Z,1.50
2023-08-21T13:23:12.316Z,1.20
2023-08-21T13:25:39.596Z,1.20
2023-08-21T13:28:07.857Z,1.10
2023-08-21T13:30:36.568Z,0.50
2023-08-21T13:33:05.616Z,0.50
2023-08-21T13:35:33.464Z,0.50
2023-08-21T13:38:00.909Z,0.60
2023-08-21T13:40:28.143Z,1.00
2023-08-21T13:42:55.122Z,1.10
2023-08-21T13:45:24.133Z,1.20
2023-08-21T13:47:51.408Z,1.30
2023-08-21T13:50:20.093Z,1.13
2023-08-21T13:52:51.852Z,1.17
2023-08-21T13:55:21.711Z,1.30
2023-08-21T13:57:49.387Z,1.00
2023-08-21T14:00:19.577Z,1.13
2023-08-21T14:02:47.012Z,0.80
2023-08-21T14:05:14.193Z,0.90
2023-08-21T14:07:42.512Z,0.73
2023-08-21T14:10:11.154Z,0.70
2023-08-21T14:12:41.618Z,0.90
2023-08-21T14:15:10.660Z,0.60
2023-08-21T14:17:38.254Z,0.67
2023-08-21T14:20:08.099Z,0.80
2023-08-21T14:22:35.462Z,1.00
2023-08-21T14:25:02.753Z,1.00
2023-08-21T14:27:29.876Z,1.90
2023-08-21T14:29:57.068Z,1.40
2023-08-21T14:32:24.316Z,0.90
2023-08-21T14:34:51.584Z,0.90
2023-08-21T14:37:18.627Z,0.70
2023-08-21T14:39:45.815Z,1.03
2023-08-21T14:42:13.276Z,1.23
2023-08-21T14:44:40.761Z,1.00
2023-08-21T14:47:08.792Z,1.00
2023-08-21T14:49:36.147Z,0.93
2023-08-21T14:52:04.445Z,1.00
2023-08-21T14:54:31.398Z,1.00
2023-08-21T14:56:58.384Z,0.90
2023-08-21T14:59:26.255Z,0.80
2023-08-21T15:01:53.483Z,0.90
2023-08-21T15:04:20.775Z,0.90
2023-08-21T15:06:48.722Z,0.83
2023-08-21T15:09:16.217Z,1.00
2023-08-21T15:11:43.314Z,1.00
2023-08-21T15:14:12.809Z,1.20
2023-08-21T15:16:40.301Z,1.10
2023-08-21T15:19:07.440Z,1.20
2023-08-21T15:21:34.561Z,1.20
2023-08-21T15:24:04.847Z,1.20
2023-08-21T15:26:32.734Z,1.20
2023-08-21T15:29:01.565Z,1.40
2023-08-21T15:31:28.772Z,1.27
2023-08-21T15:33:55.820Z,1.27
2023-08-21T15:36:22.915Z,1.20
2023-08-21T15:38:50.182Z,1.20
2023-08-21T15:41:17.117Z,1.20
2023-08-21T15:43:44.180Z,1.40
2023-08-21T15:46:11.221Z,1.20
2023-08-21T15:48:38.379Z,1.63
2023-08-21T15:51:05.711Z,1.40
2023-08-21T15:53:32.723Z,1.40
2023-08-21T15:55:59.681Z,1.20
2023-08-21T15:58:26.706Z,1.00
2023-08-21T16:00:53.814Z,1.20
2023-08-21T16:03:20.854Z,1.00
2023-08-21T16:05:48.276Z,1.00
2023-08-21T16:08:15.317Z,0.87
2023-08-21T16:10:42.332Z,0.67
2023-08-21T16:13:10.031Z,0.60
2023-08-21T16:15:37.080Z,1.00
2023-08-21T16:18:04.300Z,0.80
2023-08-21T16:20:31.381Z,1.00
2023-08-21T16:22:58.278Z,0.70
2023-08-21T16:25:25.803Z,1.00
2023-08-21T16:27:52.913Z,0.77
2023-08-21T16:30:19.973Z,0.80
2023-08-21T16:32:47.132Z,0.60
2023-08-21T16:35:14.130Z,1.13
2023-08-21T16:37:42.670Z,1.00
2023-08-21T16:40:12.873Z,0.83
2023-08-21T16:42:40.159Z,0.70
2023-08-21T16:45:08.380Z,0.70
2023-08-21T16:47:37.187Z,0.87
2023-08-21T16:50:05.572Z,0.90
2023-08-21T16:52:33.498Z,0.77
2023-08-21T16:55:01.884Z,0.97
2023-08-21T16:57:29.229Z,1.07
2023-08-21T16:59:57.917Z,0.80
2023-08-21T17:02:27.639Z,1.00
2023-08-21T17:04:56.052Z,1.00
2023-08-21T17:07:23.180Z,0.90
2023-08-21T17:09:50.812Z,1.00
2023-08-21T17:12:18.360Z,1.23
2023-08-21T17:14:46.320Z,1.10
2023-08-21T17:17:13.658Z,0.90
2023-08-21T17:19:40.838Z,1.00
2023-08-21T17:22:08.658Z,1.10
2023-08-21T17:24:35.736Z,0.90
2023-08-21T17:27:04.200Z,0.90
2023-08-21T17:29:31.338Z,0.70
2023-08-21T17:31:58.275Z,0.70
2023-08-21T17:34:25.453Z,1.10
2023-08-21T17:36:53.448Z,0.90
2023-08-21T17:39:20.821Z,0.97
2023-08-21T17:41:48.056Z,1.17
2023-08-21T17:44:18.688Z,1.00
2023-08-21T17:46:46.242Z,1.10
2023-08-21T17:49:13.552Z,0.80
2023-08-21T17:51:40.725Z,0.90
2023-08-21T17:54:07.634Z,0.90
2023-08-21T17:56:34.998Z,0.93
2023-08-21T17:59:02.166Z,1.13
2023-08-21T18:01:29.166Z,0.80
2023-08-21T18:03:56.269Z,1.10
2023-08-21T18:06:23.251Z,1.60
2023-08-21T18:08:50.782Z,1.20
2023-08-21T18:11:18.814Z,1.00
2023-08-21T18:13:45.912Z,1.00
2023-08-21T18:16:12.865Z,0.90
2023-08-21T18:18:46.654Z,1.00
2023-08-21T18:21:14.447Z,1.10
2023-08-21T18:23:41.475Z,0.77
2023-08-21T18:26:08.568Z,1.00
2023-08-21T18:28:35.583Z,0.93
2023-08-21T18:31:02.760Z,0.70
2023-08-21T18:33:30.163Z,0.60
2023-08-21T18:35:57.248Z,0.80
2023-08-21T18:38:24.434Z,0.57
2023-08-21T18:40:51.483Z,0.80
2023-08-21T18:43:21.628Z,0.87
2023-08-21T18:45:50.079Z,0.70
2023-08-21T18:48:17.416Z,0.70
2023-08-21T18:50:46.103Z,0.87
2023-08-21T18:53:14.256Z,1.00
2023-08-21T18:55:44.537Z,0.90
2023-08-21T18:58:12.462Z,0.80
2023-08-21T19:00:39.725Z,1.00
2023-08-21T19:03:07.579Z,1.00
2023-08-21T19:05:35.160Z,0.80
2023-08-21T19:08:02.109Z,1.00
2023-08-21T19:10:29.437Z,1.07
2023-08-21T19:12:57.256Z,1.00
2023-08-21T19:15:24.430Z,1.00
2023-08-21T19:17:51.716Z,0.93
2023-08-21T19:20:18.888Z,1.20
2023-08-21T19:22:45.931Z,1.20
2023-08-21T19:25:13.939Z,1.33
2023-08-21T19:27:41.431Z,1.50
2023-08-21T19:30:09.172Z,1.10
2023-08-21T19:32:37.909Z,1.40
2023-08-21T19:35:06.253Z,1.30
2023-08-21T19:37:33.518Z,1.60
2023-08-21T19:40:00.898Z,1.70
2023-08-21T19:42:28.248Z,1.63
2023-08-21T19:44:55.642Z,1.77
2023-08-21T19:47:22.746Z,1.77
2023-08-21T19:49:50.329Z,1.53
2023-08-21T19:52:17.372Z,1.57
2023-08-21T19:54:46.872Z,1.60
2023-08-21T19:57:13.891Z,1.73
2023-08-21T19:59:41.578Z,1.30
2023-08-21T20:02:11.322Z,1.63
2023-08-21T20:04:38.302Z,1.80
2023-08-21T20:07:07.475Z,1.37
2023-08-21T20:09:34.655Z,1.67
2023-08-21T20:12:01.671Z,1.60
2023-08-21T20:14:28.617Z,1.60
2023-08-21T20:16:55.672Z,1.70
2023-08-21T20:19:22.727Z,1.60
2023-08-21T20:21:49.923Z,1.40
2023-08-21T20:24:18.689Z,1.40
2023-08-21T20:26:45.645Z,1.20
2023-08-21T20:29:13.115Z,1.53
2023-08-21T20:31:40.446Z,1.60
2023-08-21T20:34:09.879Z,1.53
2023-08-21T20:36:37.839Z,1.40
2023-08-21T20:39:05.028Z,1.47
2023-08-21T20:41:33.279Z,1.50
2023-08-21T20:44:00.305Z,1.40
2023-08-21T20:46:27.607Z,1.20
2023-08-21T20:48:54.505Z,1.33
2023-08-21T20:51:22.187Z,1.30
2023-08-21T20:53:49.144Z,1.20
2023-08-21T20:56:16.161Z,1.23
2023-08-21T20:58:43.077Z,1.10
2023-08-21T21:01:10.562Z,0.80
2023-08-21T21:03:37.684Z,1.10
2023-08-21T21:06:04.692Z,0.90
2023-08-21T21:08:31.908Z,1.07
2023-08-21T21:10:59.267Z,0.70
2023-08-21T21:13:26.239Z,0.80
2023-08-21T21:15:53.200Z,0.57
2023-08-21T21:18:20.226Z,0.77
2023-08-21T21:20:47.299Z,0.57
2023-08-21T21:23:14.354Z,0.63
2023-08-21T21:25:41.325Z,0.70
2023-08-21T21:28:08.499Z,0.70
2023-08-21T21:30:35.577Z,0.53
2023-08-21T21:33:02.707Z,0.60
2023-08-21T21:35:29.804Z,0.50
2023-08-21T21:37:56.774Z,0.67
2023-08-21T21:40:23.713Z,0.67
2023-08-21T21:42:50.806Z,0.43
2023-08-21T21:45:19.466Z,0.73
2023-08-21T21:47:46.463Z,0.97
2023-08-21T21:50:13.498Z,1.00
2023-08-21T21:52:40.598Z,1.30
2023-08-21T21:55:08.319Z,1.40
2023-08-21T21:57:35.386Z,1.23
2023-08-21T22:00:02.570Z,1.60
2023-08-21T22:02:33.074Z,1.60
2023-08-21T22:05:00.162Z,1.50
2023-08-21T22:07:27.246Z,1.43
2023-08-21T22:09:54.312Z,1.53
2023-08-21T22:12:21.259Z,2.17
2023-08-21T22:14:48.283Z,1.60
2023-08-21T22:17:15.189Z,1.70
2023-08-21T22:19:42.303Z,1.60
2023-08-21T22:22:09.269Z,1.20
2023-08-21T22:24:36.324Z,1.43
2023-08-21T22:27:03.384Z,1.10
2023-08-21T22:29:30.722Z,1.87
2023-08-21T22:31:57.702Z,1.70
2023-08-21T22:34:24.817Z,1.90
2023-08-21T22:36:51.979Z,2.50
2023-08-21T22:39:18.970Z,1.67
2023-08-21T22:41:46.265Z,1.40
2023-08-21T22:44:14.464Z,1.40
2023-08-21T22:46:43.544Z,1.30
2023-08-21T22:49:10.830Z,1.50
2023-08-21T22:51:40.707Z,1.00
2023-08-21T22:54:07.832Z,1.20
2023-08-21T22:56:34.841Z,1.30
2023-08-21T22:59:02.004Z,1.20
2023-08-21T23:01:29.056Z,1.30
2023-08-21T23:03:56.433Z,1.13
2023-08-21T23:06:23.646Z,1.13
2023-08-21T23:08:50.626Z,1.10
2023-08-21T23:11:17.860Z,1.27
2023-08-21T23:13:44.958Z,1.20
2023-08-21T23:16:12.100Z,1.10
2023-08-21T23:18:39.174Z,1.30
2023-08-21T23:21:06.509Z,1.30
2023-08-21T23:23:34.476Z,1.33
2023-08-21T23:26:02.707Z,1.40
2023-08-21T23:28:31.646Z,1.30
2023-08-21T23:30:59.044Z,1.63
2023-08-21T23:33:26.101Z,1.67
2023-08-21T23:35:53.568Z,1.57
2023-08-21T23:38:20.566Z,1.97
2023-08-21T23:40:47.540Z,1.80
2023-08-21T23:43:14.749Z,1.77
2023-08-21T23:45:41.788Z,1.90
2023-08-21T23:48:08.888Z,1.97
2023-08-21T23:50:36.184Z,1.80
2023-08-21T23:53:07.204Z,1.90
2023-08-21T23:55:35.741Z,2.00
2023-08-21T23:58:07.345Z,2.17
